sensor_id;sensor_type;location;lat;lon;timestamp;temperature;humidity
34646;DHT22;20857;47.808;12.482;2023-02-01T00:01:08;4.50;99.90
34646;DHT22;20857;47.808;12.482;2023-02-01T00:03:34;4.50;99.90
34646;DHT22;20857;47.808;12.482;2023-02-01T00:05:59;4.60;99.90
34646;DHT22;20857;47.808;12.482;2023-02-01T00:08:25;4.60;99.90
34646;DHT22;20857;47.808;12.482;2023-02-01T00:10:57;4.50;99.90
34646;DHT22;20857;47.808;12.482;2023-02-01T00:13:23;4.50;99.90
34646;DHT22;20857;47.808;12.482;2023-02-01T00:15:48;4.50;99.90
34646;DHT22;20857;47.808;12.482;2023-02-01T00:18:14;4.50;99.90
34646;DHT22;20857;47.808;12.482;2023-02-01T00:20:44;4.50;99.90
34646;DHT22;20857;47.808;12.482;2023-02-01T00:23:10;4.50;99.90
34646;DHT22;20857;47.808;12.482;2023-02-01T00:25:35;4.40;99.90
34646;DHT22;20857;47.808;12.482;2023-02-01T00:28:01;4.40;99.90
34646;DHT22;20857;47.808;12.482;2023-02-01T00:30:26;4.40;99.90
34646;DHT22;20857;47.808;12.482;2023-02-01T00:32:51;4.40;99.90
34646;DHT22;20857;47.808;12.482;2023-02-01T00:35:17;4.30;99.90
34646;DHT22;20857;47.808;12.482;2023-02-01T00:37:42;4.30;99.90
34646;DHT22;20857;47.808;12.482;2023-02-01T00:40:08;4.30;99.90
34646;DHT22;20857;47.808;12.482;2023-02-01T00:42:34;4.30;99.90
34646;DHT22;20857;47.808;12.482;2023-02-01T00:44:59;4.40;99.90
34646;DHT22;20857;47.808;12.482;2023-02-01T00:47:25;4.50;99.90
34646;DHT22;20857;47.808;12.482;2023-02-01T00:49:50;4.60;99.90
34646;DHT22;20857;47.808;12.482;2023-02-01T00:52:16;4.50;99.90
34646;DHT22;20857;47.808;12.482;2023-02-01T00:54:41;4.50;99.90
34646;DHT22;20857;47.808;12.482;2023-02-01T00:57:06;4.40;99.90
34646;DHT22;20857;47.808;12.482;2023-02-01T00:59:32;4.40;99.90
34646;DHT22;20857;47.808;12.482;2023-02-01T01:01:57;4.30;99.90
34646;DHT22;20857;47.808;12.482;2023-02-01T01:04:23;4.30;99.90
34646;DHT22;20857;47.808;12.482;2023-02-01T01:06:48;5.40;99.90
34646;DHT22;20857;47.808;12.482;2023-02-01T01:09:14;4.20;99.90
34646;DHT22;20857;47.808;12.482;2023-02-01T01:11:39;4.30;99.90
34646;DHT22;20857;47.808;12.482;2023-02-01T01:14:06;4.20;99.90
34646;DHT22;20857;47.808;12.482;2023-02-01T01:16:31;4.10;99.90
34646;DHT22;20857;47.808;12.482;2023-02-01T01:18:57;4.00;99.90
34646;DHT22;20857;47.808;12.482;2023-02-01T01:21:23;4.00;99.90
34646;DHT22;20857;47.808;12.482;2023-02-01T01:23:49;4.00;99.90
34646;DHT22;20857;47.808;12.482;2023-02-01T01:26:18;4.00;99.90
34646;DHT22;20857;47.808;12.482;2023-02-01T01:28:44;3.90;99.90
34646;DHT22;20857;47.808;12.482;2023-02-01T01:31:11;3.90;99.90
34646;DHT22;20857;47.808;12.482;2023-02-01T01:33:36;3.90;99.90
34646;DHT22;20857;47.808;12.482;2023-02-01T01:36:03;3.80;99.90
34646;DHT22;20857;47.808;12.482;2023-02-01T01:38:29;4.00;99.90
34646;DHT22;20857;47.808;12.482;2023-02-01T01:40:55;5.50;99.90
34646;DHT22;20857;47.808;12.482;2023-02-01T01:43:20;3.90;99.90
34646;DHT22;20857;47.808;12.482;2023-02-01T01:45:49;3.90;99.90
34646;DHT22;20857;47.808;12.482;2023-02-01T01:53:20;3.80;99.90
34646;DHT22;20857;47.808;12.482;2023-02-01T01:55:47;3.80;99.90
34646;DHT22;20857;47.808;12.482;2023-02-01T01:58:21;3.70;99.90
34646;DHT22;20857;47.808;12.482;2023-02-01T02:00:47;3.70;99.90
34646;DHT22;20857;47.808;12.482;2023-02-01T02:03:19;3.70;99.90
34646;DHT22;20857;47.808;12.482;2023-02-01T02:05:46;3.80;99.90
34646;DHT22;20857;47.808;12.482;2023-02-01T02:08:12;3.70;99.90
34646;DHT22;20857;47.808;12.482;2023-02-01T02:10:38;3.70;99.90
34646;DHT22;20857;47.808;12.482;2023-02-01T02:13:22;3.70;99.90
34646;DHT22;20857;47.808;12.482;2023-02-01T02:15:53;3.70;99.90
34646;DHT22;20857;47.808;12.482;2023-02-01T02:18:26;3.60;99.90
34646;DHT22;20857;47.808;12.482;2023-02-01T02:36:31;3.70;99.90
34646;DHT22;20857;47.808;12.482;2023-02-01T02:39:06;3.70;99.90
34646;DHT22;20857;47.808;12.482;2023-02-01T02:41:48;3.60;99.90
34646;DHT22;20857;47.808;12.482;2023-02-01T02:44:36;3.60;99.90
34646;DHT22;20857;47.808;12.482;2023-02-01T02:47:57;3.50;99.90
34646;DHT22;20857;47.808;12.482;2023-02-01T02:50:36;3.60;99.90
34646;DHT22;20857;47.808;12.482;2023-02-01T02:53:23;3.60;99.90
34646;DHT22;20857;47.808;12.482;2023-02-01T02:56:26;3.60;99.90
34646;DHT22;20857;47.808;12.482;2023-02-01T02:59:14;3.60;99.90
34646;DHT22;20857;47.808;12.482;2023-02-01T03:01:59;3.50;99.90
34646;DHT22;20857;47.808;12.482;2023-02-01T03:04:42;3.40;99.90
34646;DHT22;20857;47.808;12.482;2023-02-01T03:07:15;3.40;99.90
34646;DHT22;20857;47.808;12.482;2023-02-01T03:09:41;3.40;99.90
34646;DHT22;20857;47.808;12.482;2023-02-01T03:12:11;3.50;99.90
34646;DHT22;20857;47.808;12.482;2023-02-01T03:14:57;3.40;99.90
34646;DHT22;20857;47.808;12.482;2023-02-01T03:17:27;3.40;99.90
34646;DHT22;20857;47.808;12.482;2023-02-01T03:19:54;3.40;99.90
34646;DHT22;20857;47.808;12.482;2023-02-01T03:22:23;3.50;99.90
34646;DHT22;20857;47.808;12.482;2023-02-01T03:24:56;3.50;99.90
34646;DHT22;20857;47.808;12.482;2023-02-01T03:32:43;3.70;99.90
34646;DHT22;20857;47.808;12.482;2023-02-01T03:35:37;3.80;99.90
34646;DHT22;20857;47.808;12.482;2023-02-01T03:38:24;3.90;99.90
34646;DHT22;20857;47.808;12.482;2023-02-01T03:40:53;4.10;99.90
34646;DHT22;20857;47.808;12.482;2023-02-01T03:43:21;3.90;99.90
34646;DHT22;20857;47.808;12.482;2023-02-01T03:45:50;3.50;99.90
34646;DHT22;20857;47.808;12.482;2023-02-01T03:48:17;3.20;99.90
34646;DHT22;20857;47.808;12.482;2023-02-01T03:50:44;3.20;99.90
34646;DHT22;20857;47.808;12.482;2023-02-01T03:53:13;3.20;99.90
34646;DHT22;20857;47.808;12.482;2023-02-01T03:55:40;3.10;99.90
34646;DHT22;20857;47.808;12.482;2023-02-01T03:58:07;3.10;99.90
34646;DHT22;20857;47.808;12.482;2023-02-01T04:00:34;3.00;99.90
34646;DHT22;20857;47.808;12.482;2023-02-01T04:03:00;3.00;99.90
34646;DHT22;20857;47.808;12.482;2023-02-01T04:05:27;3.10;99.90
34646;DHT22;20857;47.808;12.482;2023-02-01T04:07:53;3.00;99.90
34646;DHT22;20857;47.808;12.482;2023-02-01T04:10:19;3.00;99.90
34646;DHT22;20857;47.808;12.482;2023-02-01T04:12:44;2.90;99.90
34646;DHT22;20857;47.808;12.482;2023-02-01T04:15:10;2.70;99.90
34646;DHT22;20857;47.808;12.482;2023-02-01T04:17:35;2.60;99.90
34646;DHT22;20857;47.808;12.482;2023-02-01T04:20:01;2.50;99.90
34646;DHT22;20857;47.808;12.482;2023-02-01T04:22:26;2.50;99.90
34646;DHT22;20857;47.808;12.482;2023-02-01T04:24:52;2.50;99.90
34646;DHT22;20857;47.808;12.482;2023-02-01T04:27:17;2.40;99.90
34646;DHT22;20857;47.808;12.482;2023-02-01T04:29:43;2.40;99.90
34646;DHT22;20857;47.808;12.482;2023-02-01T04:32:10;2.40;99.90
34646;DHT22;20857;47.808;12.482;2023-02-01T04:34:36;2.40;99.90
34646;DHT22;20857;47.808;12.482;2023-02-01T04:37:01;2.40;99.90
34646;DHT22;20857;47.808;12.482;2023-02-01T04:39:27;2.40;99.90
34646;DHT22;20857;47.808;12.482;2023-02-01T04:41:53;2.40;99.90
34646;DHT22;20857;47.808;12.482;2023-02-01T04:44:19;2.50;99.90
34646;DHT22;20857;47.808;12.482;2023-02-01T04:46:45;2.50;99.90
34646;DHT22;20857;47.808;12.482;2023-02-01T04:49:11;2.50;99.90
34646;DHT22;20857;47.808;12.482;2023-02-01T04:51:36;2.60;99.90
34646;DHT22;20857;47.808;12.482;2023-02-01T04:54:02;2.60;99.90
34646;DHT22;20857;47.808;12.482;2023-02-01T04:56:28;2.70;99.90
34646;DHT22;20857;47.808;12.482;2023-02-01T04:58:53;2.90;99.90
34646;DHT22;20857;47.808;12.482;2023-02-01T05:01:19;2.90;99.90
34646;DHT22;20857;47.808;12.482;2023-02-01T05:03:44;3.00;99.90
34646;DHT22;20857;47.808;12.482;2023-02-01T05:06:09;2.90;99.90
34646;DHT22;20857;47.808;12.482;2023-02-01T05:08:35;2.90;99.90
34646;DHT22;20857;47.808;12.482;2023-02-01T05:11:01;3.10;99.90
34646;DHT22;20857;47.808;12.482;2023-02-01T05:13:29;3.20;99.90
34646;DHT22;20857;47.808;12.482;2023-02-01T05:16:13;3.20;99.90
34646;DHT22;20857;47.808;12.482;2023-02-01T05:18:39;3.30;99.90
34646;DHT22;20857;47.808;12.482;2023-02-01T05:21:04;3.40;99.90
34646;DHT22;20857;47.808;12.482;2023-02-01T05:23:30;3.50;99.90
34646;DHT22;20857;47.808;12.482;2023-02-01T05:25:59;3.60;99.90
34646;DHT22;20857;47.808;12.482;2023-02-01T05:28:26;3.80;99.90
34646;DHT22;20857;47.808;12.482;2023-02-01T05:30:51;3.80;99.90
34646;DHT22;20857;47.808;12.482;2023-02-01T05:33:17;4.10;99.90
34646;DHT22;20857;47.808;12.482;2023-02-01T05:35:42;4.10;99.90
34646;DHT22;20857;47.808;12.482;2023-02-01T05:38:08;4.10;99.90
34646;DHT22;20857;47.808;12.482;2023-02-01T05:40:33;4.10;99.90
34646;DHT22;20857;47.808;12.482;2023-02-01T05:42:59;4.20;99.90
34646;DHT22;20857;47.808;12.482;2023-02-01T05:45:24;4.20;99.90
34646;DHT22;20857;47.808;12.482;2023-02-01T05:47:50;4.00;99.90
34646;DHT22;20857;47.808;12.482;2023-02-01T05:50:16;4.30;99.90
34646;DHT22;20857;47.808;12.482;2023-02-01T05:52:42;5.10;99.90
34646;DHT22;20857;47.808;12.482;2023-02-01T05:55:07;4.30;99.90
34646;DHT22;20857;47.808;12.482;2023-02-01T05:57:33;4.30;99.90
34646;DHT22;20857;47.808;12.482;2023-02-01T05:59:58;4.30;99.90
34646;DHT22;20857;47.808;12.482;2023-02-01T06:02:24;4.40;99.90
34646;DHT22;20857;47.808;12.482;2023-02-01T06:04:49;4.40;99.90
34646;DHT22;20857;47.808;12.482;2023-02-01T06:07:15;4.40;99.90
34646;DHT22;20857;47.808;12.482;2023-02-01T06:09:40;4.40;99.90
34646;DHT22;20857;47.808;12.482;2023-02-01T06:12:06;4.40;99.90
34646;DHT22;20857;47.808;12.482;2023-02-01T06:14:31;4.40;99.90
34646;DHT22;20857;47.808;12.482;2023-02-01T06:16:57;4.30;99.90
34646;DHT22;20857;47.808;12.482;2023-02-01T06:19:23;4.30;99.90
34646;DHT22;20857;47.808;12.482;2023-02-01T06:21:48;4.30;99.90
34646;DHT22;20857;47.808;12.482;2023-02-01T06:24:14;4.30;99.90
34646;DHT22;20857;47.808;12.482;2023-02-01T06:26:39;4.30;99.90
34646;DHT22;20857;47.808;12.482;2023-02-01T06:29:11;4.30;99.90
34646;DHT22;20857;47.808;12.482;2023-02-01T06:31:37;4.30;99.90
34646;DHT22;20857;47.808;12.482;2023-02-01T06:34:02;4.30;99.90
34646;DHT22;20857;47.808;12.482;2023-02-01T06:36:28;4.30;99.90
34646;DHT22;20857;47.808;12.482;2023-02-01T06:38:53;4.30;99.90
34646;DHT22;20857;47.808;12.482;2023-02-01T06:41:21;4.20;99.90
34646;DHT22;20857;47.808;12.482;2023-02-01T06:43:47;4.30;99.90
34646;DHT22;20857;47.808;12.482;2023-02-01T06:46:13;4.20;99.90
34646;DHT22;20857;47.808;12.482;2023-02-01T06:48:38;4.20;99.90
34646;DHT22;20857;47.808;12.482;2023-02-01T06:51:04;4.20;99.90
34646;DHT22;20857;47.808;12.482;2023-02-01T06:53:30;4.20;99.90
34646;DHT22;20857;47.808;12.482;2023-02-01T06:55:56;4.20;99.90
34646;DHT22;20857;47.808;12.482;2023-02-01T06:58:23;4.30;99.90
34646;DHT22;20857;47.808;12.482;2023-02-01T07:00:48;4.30;99.90
34646;DHT22;20857;47.808;12.482;2023-02-01T07:03:14;4.20;99.90
34646;DHT22;20857;47.808;12.482;2023-02-01T07:05:39;4.30;99.90
34646;DHT22;20857;47.808;12.482;2023-02-01T07:08:05;4.40;99.90
34646;DHT22;20857;47.808;12.482;2023-02-01T07:10:30;4.40;99.90
34646;DHT22;20857;47.808;12.482;2023-02-01T07:12:56;4.40;99.90
34646;DHT22;20857;47.808;12.482;2023-02-01T07:15:22;4.40;99.90
34646;DHT22;20857;47.808;12.482;2023-02-01T07:17:48;4.40;99.90
34646;DHT22;20857;47.808;12.482;2023-02-01T07:20:14;4.40;99.90
34646;DHT22;20857;47.808;12.482;2023-02-01T07:22:40;4.40;99.90
34646;DHT22;20857;47.808;12.482;2023-02-01T07:25:06;4.50;99.90
34646;DHT22;20857;47.808;12.482;2023-02-01T07:27:33;4.50;99.90
34646;DHT22;20857;47.808;12.482;2023-02-01T07:29:59;5.70;99.90
34646;DHT22;20857;47.808;12.482;2023-02-01T07:32:27;4.60;99.90
34646;DHT22;20857;47.808;12.482;2023-02-01T07:34:53;4.50;99.90
34646;DHT22;20857;47.808;12.482;2023-02-01T07:37:18;4.50;99.90
34646;DHT22;20857;47.808;12.482;2023-02-01T07:39:44;4.60;99.90
34646;DHT22;20857;47.808;12.482;2023-02-01T07:42:09;4.50;99.90
34646;DHT22;20857;47.808;12.482;2023-02-01T07:44:34;4.60;99.90
34646;DHT22;20857;47.808;12.482;2023-02-01T07:47:00;4.60;99.90
34646;DHT22;20857;47.808;12.482;2023-02-01T07:49:25;4.60;99.90
34646;DHT22;20857;47.808;12.482;2023-02-01T07:51:51;4.60;99.90
34646;DHT22;20857;47.808;12.482;2023-02-01T07:54:17;4.60;99.90
34646;DHT22;20857;47.808;12.482;2023-02-01T07:56:43;4.60;99.90
34646;DHT22;20857;47.808;12.482;2023-02-01T07:59:08;4.70;99.90
34646;DHT22;20857;47.808;12.482;2023-02-01T08:01:34;4.70;99.90
34646;DHT22;20857;47.808;12.482;2023-02-01T08:04:00;4.70;99.90
34646;DHT22;20857;47.808;12.482;2023-02-01T08:06:26;4.70;99.90
34646;DHT22;20857;47.808;12.482;2023-02-01T08:08:52;4.70;99.90
34646;DHT22;20857;47.808;12.482;2023-02-01T08:11:18;4.80;99.90
34646;DHT22;20857;47.808;12.482;2023-02-01T08:13:44;4.80;99.90
34646;DHT22;20857;47.808;12.482;2023-02-01T08:16:10;4.80;99.90
34646;DHT22;20857;47.808;12.482;2023-02-01T08:18:37;4.90;99.90
34646;DHT22;20857;47.808;12.482;2023-02-01T08:21:12;5.00;99.90
34646;DHT22;20857;47.808;12.482;2023-02-01T08:23:38;5.10;99.90
34646;DHT22;20857;47.808;12.482;2023-02-01T08:28:30;5.00;99.90
34646;DHT22;20857;47.808;12.482;2023-02-01T08:30:55;5.00;99.90
34646;DHT22;20857;47.808;12.482;2023-02-01T08:33:20;5.00;99.90
34646;DHT22;20857;47.808;12.482;2023-02-01T08:35:47;5.00;99.90
34646;DHT22;20857;47.808;12.482;2023-02-01T08:38:12;5.00;99.90
34646;DHT22;20857;47.808;12.482;2023-02-01T08:40:38;5.00;99.90
34646;DHT22;20857;47.808;12.482;2023-02-01T08:43:03;5.00;99.90
34646;DHT22;20857;47.808;12.482;2023-02-01T08:45:29;4.90;99.90
34646;DHT22;20857;47.808;12.482;2023-02-01T08:47:55;5.00;99.90
34646;DHT22;20857;47.808;12.482;2023-02-01T08:50:21;5.10;99.90
34646;DHT22;20857;47.808;12.482;2023-02-01T08:52:47;5.10;99.90
34646;DHT22;20857;47.808;12.482;2023-02-01T08:55:12;5.20;99.90
34646;DHT22;20857;47.808;12.482;2023-02-01T08:57:38;5.20;99.90
34646;DHT22;20857;47.808;12.482;2023-02-01T09:00:04;5.20;99.90
34646;DHT22;20857;47.808;12.482;2023-02-01T09:02:30;5.30;99.90
34646;DHT22;20857;47.808;12.482;2023-02-01T09:04:55;5.30;99.90
34646;DHT22;20857;47.808;12.482;2023-02-01T09:07:21;5.30;99.90
34646;DHT22;20857;47.808;12.482;2023-02-01T09:09:46;5.30;99.90
34646;DHT22;20857;47.808;12.482;2023-02-01T09:12:12;5.40;99.90
34646;DHT22;20857;47.808;12.482;2023-02-01T09:14:37;5.40;99.90
34646;DHT22;20857;47.808;12.482;2023-02-01T09:17:03;5.50;99.90
34646;DHT22;20857;47.808;12.482;2023-02-01T09:19:30;5.50;99.90
34646;DHT22;20857;47.808;12.482;2023-02-01T09:21:56;5.50;99.90
34646;DHT22;20857;47.808;12.482;2023-02-01T09:24:21;5.50;99.90
34646;DHT22;20857;47.808;12.482;2023-02-01T09:26:47;5.50;99.90
34646;DHT22;20857;47.808;12.482;2023-02-01T09:29:13;5.40;99.90
34646;DHT22;20857;47.808;12.482;2023-02-01T09:31:39;5.40;99.90
34646;DHT22;20857;47.808;12.482;2023-02-01T09:34:05;5.50;99.90
34646;DHT22;20857;47.808;12.482;2023-02-01T09:36:31;5.60;99.90
34646;DHT22;20857;47.808;12.482;2023-02-01T09:38:57;5.60;99.90
34646;DHT22;20857;47.808;12.482;2023-02-01T09:43:52;5.60;99.90
34646;DHT22;20857;47.808;12.482;2023-02-01T09:46:26;5.70;99.90
34646;DHT22;20857;47.808;12.482;2023-02-01T09:48:53;5.60;99.90
34646;DHT22;20857;47.808;12.482;2023-02-01T09:51:20;6.80;99.90
34646;DHT22;20857;47.808;12.482;2023-02-01T09:53:53;5.60;99.90
34646;DHT22;20857;47.808;12.482;2023-02-01T09:56:23;5.60;99.90
34646;DHT22;20857;47.808;12.482;2023-02-01T09:58:59;5.60;99.90
34646;DHT22;20857;47.808;12.482;2023-02-01T10:01:26;5.60;99.90
34646;DHT22;20857;47.808;12.482;2023-02-01T10:03:55;5.60;99.90
34646;DHT22;20857;47.808;12.482;2023-02-01T10:11:34;5.70;99.90
34646;DHT22;20857;47.808;12.482;2023-02-01T10:17:04;5.80;99.90
34646;DHT22;20857;47.808;12.482;2023-02-01T10:22:17;5.90;99.90
34646;DHT22;20857;47.808;12.482;2023-02-01T10:24:51;6.60;99.90
34646;DHT22;20857;47.808;12.482;2023-02-01T10:27:22;6.20;99.90
34646;DHT22;20857;47.808;12.482;2023-02-01T10:29:59;6.20;99.90
34646;DHT22;20857;47.808;12.482;2023-02-01T10:32:30;6.30;99.90
34646;DHT22;20857;47.808;12.482;2023-02-01T10:35:00;6.30;99.90
34646;DHT22;20857;47.808;12.482;2023-02-01T10:37:27;6.20;99.90
34646;DHT22;20857;47.808;12.482;2023-02-01T10:39:56;6.30;99.90
34646;DHT22;20857;47.808;12.482;2023-02-01T10:42:26;6.40;99.90
34646;DHT22;20857;47.808;12.482;2023-02-01T10:44:52;6.30;99.90
34646;DHT22;20857;47.808;12.482;2023-02-01T10:47:19;7.30;99.90
34646;DHT22;20857;47.808;12.482;2023-02-01T10:49:47;6.20;99.90
34646;DHT22;20857;47.808;12.482;2023-02-01T10:52:16;6.10;99.90
34646;DHT22;20857;47.808;12.482;2023-02-01T10:54:43;7.00;99.90
34646;DHT22;20857;47.808;12.482;2023-02-01T10:57:09;6.20;99.90
34646;DHT22;20857;47.808;12.482;2023-02-01T10:59:35;6.10;99.90
34646;DHT22;20857;47.808;12.482;2023-02-01T11:02:18;6.10;99.90
34646;DHT22;20857;47.808;12.482;2023-02-01T11:04:44;6.10;99.90
34646;DHT22;20857;47.808;12.482;2023-02-01T11:07:16;6.00;99.90
34646;DHT22;20857;47.808;12.482;2023-02-01T11:09:42;6.00;99.90
34646;DHT22;20857;47.808;12.482;2023-02-01T11:14:50;6.10;99.90
34646;DHT22;20857;47.808;12.482;2023-02-01T11:17:31;6.10;99.90
34646;DHT22;20857;47.808;12.482;2023-02-01T11:20:03;6.10;99.90
34646;DHT22;20857;47.808;12.482;2023-02-01T11:22:29;6.10;99.90
34646;DHT22;20857;47.808;12.482;2023-02-01T11:24:55;6.00;99.90
34646;DHT22;20857;47.808;12.482;2023-02-01T11:27:21;6.00;99.90
34646;DHT22;20857;47.808;12.482;2023-02-01T11:29:49;6.00;99.90
34646;DHT22;20857;47.808;12.482;2023-02-01T11:32:17;5.90;99.90
34646;DHT22;20857;47.808;12.482;2023-02-01T11:34:52;6.30;99.90
34646;DHT22;20857;47.808;12.482;2023-02-01T11:37:20;5.90;99.90
34646;DHT22;20857;47.808;12.482;2023-02-01T11:40:00;5.90;99.90
34646;DHT22;20857;47.808;12.482;2023-02-01T11:42:26;6.00;99.90
34646;DHT22;20857;47.808;12.482;2023-02-01T11:44:51;6.10;99.90
34646;DHT22;20857;47.808;12.482;2023-02-01T11:47:38;6.20;99.90
34646;DHT22;20857;47.808;12.482;2023-02-01T11:50:08;6.10;99.90
34646;DHT22;20857;47.808;12.482;2023-02-01T12:05:53;6.30;99.90
34646;DHT22;20857;47.808;12.482;2023-02-01T12:11:01;6.30;99.90
34646;DHT22;20857;47.808;12.482;2023-02-01T12:26:26;6.20;99.90
34646;DHT22;20857;47.808;12.482;2023-02-01T12:31:50;6.00;99.90
34646;DHT22;20857;47.808;12.482;2023-02-01T12:36:54;5.90;99.90
34646;DHT22;20857;47.808;12.482;2023-02-01T12:46:56;6.00;99.90
34646;DHT22;20857;47.808;12.482;2023-02-01T12:49:33;6.10;99.90
34646;DHT22;20857;47.808;12.482;2023-02-01T12:52:01;6.10;99.90
34646;DHT22;20857;47.808;12.482;2023-02-01T12:57:12;7.30;99.90
34646;DHT22;20857;47.808;12.482;2023-02-01T12:59:41;5.90;99.90
34646;DHT22;20857;47.808;12.482;2023-02-01T13:04:55;5.90;99.90
34646;DHT22;20857;47.808;12.482;2023-02-01T13:07:26;6.00;99.90
34646;DHT22;20857;47.808;12.482;2023-02-01T13:09:56;5.90;99.90
34646;DHT22;20857;47.808;12.482;2023-02-01T13:12:28;5.80;99.90
34646;DHT22;20857;47.808;12.482;2023-02-01T13:14:58;5.70;99.90
34646;DHT22;20857;47.808;12.482;2023-02-01T13:17:29;5.70;99.90
34646;DHT22;20857;47.808;12.482;2023-02-01T13:20:03;5.60;99.90
34646;DHT22;20857;47.808;12.482;2023-02-01T13:24:57;5.70;99.90
34646;DHT22;20857;47.808;12.482;2023-02-01T13:27:23;5.60;99.90
34646;DHT22;20857;47.808;12.482;2023-02-01T13:29:55;5.60;99.90
34646;DHT22;20857;47.808;12.482;2023-02-01T13:42:22;5.40;99.90
34646;DHT22;20857;47.808;12.482;2023-02-01T13:44:59;5.30;99.90
34646;DHT22;20857;47.808;12.482;2023-02-01T13:47:32;5.20;99.90
34646;DHT22;20857;47.808;12.482;2023-02-01T13:50:04;5.20;99.90
34646;DHT22;20857;47.808;12.482;2023-02-01T13:52:38;5.20;99.90
34646;DHT22;20857;47.808;12.482;2023-02-01T13:55:15;5.20;99.90
34646;DHT22;20857;47.808;12.482;2023-02-01T13:57:41;5.20;99.90
34646;DHT22;20857;47.808;12.482;2023-02-01T14:21:18;5.10;99.90
34646;DHT22;20857;47.808;12.482;2023-02-01T14:23:45;5.10;99.90
34646;DHT22;20857;47.808;12.482;2023-02-01T14:26:13;5.10;99.90
34646;DHT22;20857;47.808;12.482;2023-02-01T14:28:40;5.20;99.90
34646;DHT22;20857;47.808;12.482;2023-02-01T14:31:29;5.20;99.90
34646;DHT22;20857;47.808;12.482;2023-02-01T14:33:57;5.20;99.90
34646;DHT22;20857;47.808;12.482;2023-02-01T14:36:23;5.10;99.90
34646;DHT22;20857;47.808;12.482;2023-02-01T14:38:49;5.10;99.90
34646;DHT22;20857;47.808;12.482;2023-02-01T14:41:31;5.10;99.90
34646;DHT22;20857;47.808;12.482;2023-02-01T14:49:10;5.20;99.90
34646;DHT22;20857;47.808;12.482;2023-02-01T14:51:36;5.20;99.90
34646;DHT22;20857;47.808;12.482;2023-02-01T14:54:02;5.20;99.90
34646;DHT22;20857;47.808;12.482;2023-02-01T14:56:27;5.20;99.90
34646;DHT22;20857;47.808;12.482;2023-02-01T14:58:57;5.20;99.90
34646;DHT22;20857;47.808;12.482;2023-02-01T15:01:29;5.20;99.90
34646;DHT22;20857;47.808;12.482;2023-02-01T15:04:00;5.10;99.90
34646;DHT22;20857;47.808;12.482;2023-02-01T15:06:37;5.10;99.90
34646;DHT22;20857;47.808;12.482;2023-02-01T15:14:19;5.10;99.90
34646;DHT22;20857;47.808;12.482;2023-02-01T15:16:45;5.10;99.90
34646;DHT22;20857;47.808;12.482;2023-02-01T15:19:15;5.10;99.90
34646;DHT22;20857;47.808;12.482;2023-02-01T15:21:44;5.10;99.90
34646;DHT22;20857;47.808;12.482;2023-02-01T15:24:17;5.00;99.90
34646;DHT22;20857;47.808;12.482;2023-02-01T15:26:44;5.10;99.90
34646;DHT22;20857;47.808;12.482;2023-02-01T15:29:12;5.10;99.90
34646;DHT22;20857;47.808;12.482;2023-02-01T15:31:40;5.10;99.90
34646;DHT22;20857;47.808;12.482;2023-02-01T15:34:06;5.10;99.90
34646;DHT22;20857;47.808;12.482;2023-02-01T15:36:32;5.10;99.90
34646;DHT22;20857;47.808;12.482;2023-02-01T15:41:47;5.10;99.90
34646;DHT22;20857;47.808;12.482;2023-02-01T15:44:22;5.00;99.90
34646;DHT22;20857;47.808;12.482;2023-02-01T15:46:52;5.00;99.90
34646;DHT22;20857;47.808;12.482;2023-02-01T15:49:25;4.90;99.90
34646;DHT22;20857;47.808;12.482;2023-02-01T15:51:51;4.90;99.90
34646;DHT22;20857;47.808;12.482;2023-02-01T15:54:17;4.90;99.90
34646;DHT22;20857;47.808;12.482;2023-02-01T15:56:49;4.90;99.90
34646;DHT22;20857;47.808;12.482;2023-02-01T15:59:19;4.80;99.90
34646;DHT22;20857;47.808;12.482;2023-02-01T16:01:45;4.80;99.90
34646;DHT22;20857;47.808;12.482;2023-02-01T16:06:59;4.90;99.90
34646;DHT22;20857;47.808;12.482;2023-02-01T16:10:30;4.80;99.90
34646;DHT22;20857;47.808;12.482;2023-02-01T16:14:52;4.70;99.90
34646;DHT22;20857;47.808;12.482;2023-02-01T16:17:18;4.70;99.90
34646;DHT22;20857;47.808;12.482;2023-02-01T16:19:43;4.60;99.90
34646;DHT22;20857;47.808;12.482;2023-02-01T16:22:12;4.70;99.90
34646;DHT22;20857;47.808;12.482;2023-02-01T16:24:37;4.70;99.90
34646;DHT22;20857;47.808;12.482;2023-02-01T16:27:03;4.70;99.90
34646;DHT22;20857;47.808;12.482;2023-02-01T16:29:30;4.70;99.90
34646;DHT22;20857;47.808;12.482;2023-02-01T16:31:55;4.70;99.90
34646;DHT22;20857;47.808;12.482;2023-02-01T16:34:21;4.80;99.90
34646;DHT22;20857;47.808;12.482;2023-02-01T16:36:47;4.70;99.90
34646;DHT22;20857;47.808;12.482;2023-02-01T16:39:16;4.70;99.90
34646;DHT22;20857;47.808;12.482;2023-02-01T16:41:42;4.70;99.90
34646;DHT22;20857;47.808;12.482;2023-02-01T16:44:08;4.70;99.90
34646;DHT22;20857;47.808;12.482;2023-02-01T16:46:34;4.70;99.90
34646;DHT22;20857;47.808;12.482;2023-02-01T16:49:00;4.60;99.90
34646;DHT22;20857;47.808;12.482;2023-02-01T16:51:27;4.70;99.90
34646;DHT22;20857;47.808;12.482;2023-02-01T16:53:53;4.70;99.90
34646;DHT22;20857;47.808;12.482;2023-02-01T16:56:20;4.70;99.90
34646;DHT22;20857;47.808;12.482;2023-02-01T16:58:46;4.70;99.90
34646;DHT22;20857;47.808;12.482;2023-02-01T17:01:13;4.70;99.90
34646;DHT22;20857;47.808;12.482;2023-02-01T17:03:38;4.70;99.90
34646;DHT22;20857;47.808;12.482;2023-02-01T17:06:04;4.70;99.90
34646;DHT22;20857;47.808;12.482;2023-02-01T17:08:34;4.70;99.90
34646;DHT22;20857;47.808;12.482;2023-02-01T17:11:01;4.70;99.90
34646;DHT22;20857;47.808;12.482;2023-02-01T17:13:26;4.70;99.90
34646;DHT22;20857;47.808;12.482;2023-02-01T17:15:53;4.70;99.90
34646;DHT22;20857;47.808;12.482;2023-02-01T17:18:20;4.60;99.90
34646;DHT22;20857;47.808;12.482;2023-02-01T17:20:45;4.60;99.90
34646;DHT22;20857;47.808;12.482;2023-02-01T17:23:13;4.60;99.90
34646;DHT22;20857;47.808;12.482;2023-02-01T17:25:38;4.60;99.90
34646;DHT22;20857;47.808;12.482;2023-02-01T17:28:04;4.60;99.90
34646;DHT22;20857;47.808;12.482;2023-02-01T17:30:30;4.50;99.90
34646;DHT22;20857;47.808;12.482;2023-02-01T17:32:56;4.40;99.90
34646;DHT22;20857;47.808;12.482;2023-02-01T17:35:23;4.40;99.90
34646;DHT22;20857;47.808;12.482;2023-02-01T17:37:49;4.50;99.90
34646;DHT22;20857;47.808;12.482;2023-02-01T17:40:15;4.50;99.90
34646;DHT22;20857;47.808;12.482;2023-02-01T17:42:40;5.00;99.90
34646;DHT22;20857;47.808;12.482;2023-02-01T17:45:20;4.40;99.90
34646;DHT22;20857;47.808;12.482;2023-02-01T17:47:46;4.40;99.90
34646;DHT22;20857;47.808;12.482;2023-02-01T17:50:14;4.40;99.90
34646;DHT22;20857;47.808;12.482;2023-02-01T17:52:40;4.40;99.90
34646;DHT22;20857;47.808;12.482;2023-02-01T17:55:15;5.00;99.90
34646;DHT22;20857;47.808;12.482;2023-02-01T17:57:42;4.50;99.90
34646;DHT22;20857;47.808;12.482;2023-02-01T18:00:08;4.50;99.90